Time;durP1;ratioP1;P1;durP2;ratioP2;P2;SDS_P1;SDS_P2;PMS_P1;PMS_P2;Temp;Humidity;BMP_temperature;BMP_pressure;BME280_temperature;BME280_humidity;BME280_pressure;Samples;Min_cycle;Max_cycle;Signal;HPM_P1;HPM_P2
2024/01/24 00:00:14;;;;;;;5.28;2.55;;;12.10;99.90;;;;;;5011007;28;20034;-79
2024/01/24 00:02:40;;;;;;;4.78;2.70;;;12.20;99.90;;;;;;5005529;28;20057;-79
2024/01/24 00:05:06;;;;;;;6.75;2.60;;;12.10;99.90;;;;;;5007580;28;20121;-79
2024/01/24 00:07:31;;;;;;;7.88;2.70;;;12.20;99.90;;;;;;5009123;28;20410;-80
2024/01/24 00:09:57;;;;;;;6.05;2.50;;;12.20;99.90;;;;;;5011863;28;20125;-80
2024/01/24 00:12:23;;;;;;;5.28;2.55;;;12.20;99.90;;;;;;5013119;28;20048;-80
2024/01/24 00:14:48;;;;;;;3.10;2.10;;;12.20;99.90;;;;;;4996531;28;20060;-79
2024/01/24 00:17:14;;;;;;;4.38;2.13;;;12.20;99.90;;;;;;5008089;28;20049;-78
2024/01/24 00:19:39;;;;;;;5.30;2.45;;;12.20;99.90;;;;;;4995919;28;20517;-80
2024/01/24 00:22:05;;;;;;;4.82;2.05;;;12.20;99.90;;;;;;5010573;28;20073;-80
2024/01/24 00:24:30;;;;;;;3.85;2.03;;;12.20;99.90;;;;;;5011584;28;20391;-79
2024/01/24 00:26:56;;;;;;;5.95;2.00;;;12.20;99.90;;;;;;5012190;28;20462;-78
2024/01/24 00:29:21;;;;;;;4.82;2.13;;;12.30;99.90;;;;;;5011899;28;20508;-79
2024/01/24 00:31:48;;;;;;;4.75;2.28;;;12.30;99.90;;;;;;5012130;28;20073;-80
2024/01/24 00:34:15;;;;;;;5.22;2.20;;;12.40;99.90;;;;;;5003947;28;20566;-79
2024/01/24 00:36:40;;;;;;;4.53;1.83;;;12.40;99.90;;;;;;5005058;28;20042;-78
2024/01/24 00:39:07;;;;;;;4.47;2.10;;;12.40;99.90;;;;;;5012254;28;20045;-80
2024/01/24 00:41:33;;;;;;;5.97;1.80;;;12.40;99.90;;;;;;5008913;28;20061;-80
2024/01/24 00:43:59;;;;;;;6.18;1.90;;;12.50;99.90;;;;;;5002310;28;20046;-79
2024/01/24 00:46:24;;;;;;;6.05;1.90;;;12.50;99.90;;;;;;5011806;28;20042;-79
2024/01/24 00:48:50;;;;;;;4.25;2.03;;;12.50;99.90;;;;;;5012473;28;20128;-80
2024/01/24 00:51:16;;;;;;;3.70;2.10;;;12.60;99.90;;;;;;5011830;28;20071;-80
2024/01/24 00:53:50;;;;;;;4.75;2.35;;;12.60;99.90;;;;;;5004239;28;20057;-79
2024/01/24 00:56:16;;;;;;;3.17;1.83;;;12.70;99.90;;;;;;5012664;28;20046;-79
2024/01/24 00:58:42;;;;;;;4.00;2.33;;;12.70;99.90;;;;;;5008891;28;20041;-79
2024/01/24 01:01:07;;;;;;;4.18;1.80;;;12.60;99.90;;;;;;5012460;28;20493;-79
2024/01/24 01:03:33;;;;;;;4.72;2.15;;;12.80;99.90;;;;;;5005220;28;20044;-79
2024/01/24 01:05:58;;;;;;;5.22;2.00;;;12.70;99.90;;;;;;5002341;28;20522;-80
2024/01/24 01:08:24;;;;;;;4.40;2.00;;;12.60;99.90;;;;;;5007756;28;20524;-80
2024/01/24 01:10:49;;;;;;;2.50;1.65;;;12.60;99.90;;;;;;5013102;28;20116;-79
2024/01/24 01:13:15;;;;;;;6.78;1.80;;;12.50;99.90;;;;;;5004224;28;20069;-78
2024/01/24 01:15:41;;;;;;;4.07;1.50;;;12.50;99.90;;;;;;5011177;28;20088;-79
2024/01/24 01:18:06;;;;;;;4.70;1.75;;;12.50;99.90;;;;;;5008456;28;20502;-79
2024/01/24 01:20:32;;;;;;;5.40;1.42;;;12.50;99.90;;;;;;5006299;28;20073;-79
2024/01/24 01:22:58;;;;;;;5.78;1.70;;;12.50;99.90;;;;;;5008808;28;20081;-80
2024/01/24 01:25:23;;;;;;;2.80;1.30;;;12.40;99.90;;;;;;5005924;28;20049;-79
2024/01/24 01:27:49;;;;;;;3.70;1.65;;;12.40;99.90;;;;;;5010726;28;20050;-79
2024/01/24 01:30:14;;;;;;;2.85;1.70;;;12.40;99.90;;;;;;5007432;28;20054;-79
2024/01/24 01:32:40;;;;;;;3.85;1.75;;;12.40;99.90;;;;;;5004815;28;20042;-78
2024/01/24 01:35:07;;;;;;;3.28;1.60;;;12.40;99.90;;;;;;5006660;28;20085;-80
2024/01/24 01:37:32;;;;;;;3.53;1.70;;;12.40;99.90;;;;;;5007133;28;20046;-79
2024/01/24 01:39:58;;;;;;;5.57;1.75;;;12.40;99.90;;;;;;5009874;28;20041;-78
2024/01/24 01:42:24;;;;;;;4.13;1.63;;;12.30;99.90;;;;;;5008223;28;20033;-77
2024/01/24 01:44:49;;;;;;;2.08;1.50;;;12.40;99.90;;;;;;5006282;28;20128;-79
2024/01/24 01:47:16;;;;;;;3.03;1.60;;;12.40;99.90;;;;;;5007581;28;20041;-79
2024/01/24 01:49:45;;;;;;;2.30;1.15;;;12.30;99.90;;;;;;5006755;28;20034;-79
2024/01/24 01:52:11;;;;;;;1.85;1.15;;;12.40;99.90;;;;;;5010271;28;20498;-79
2024/01/24 01:54:40;;;;;;;2.50;1.75;;;12.40;99.90;;;;;;5006743;28;20392;-79
2024/01/24 01:57:08;;;;;;;5.80;1.50;;;12.40;99.90;;;;;;4988949;28;20048;-80
2024/01/24 01:59:35;;;;;;;5.22;1.70;;;12.30;99.90;;;;;;5008593;28;20075;-80
2024/01/24 02:02:02;;;;;;;3.05;1.27;;;12.30;99.90;;;;;;5004959;28;20736;-79
2024/01/24 02:04:28;;;;;;;4.20;1.38;;;12.40;99.90;;;;;;5004223;28;20042;-80
2024/01/24 02:06:58;;;;;;;4.47;1.42;;;12.40;99.90;;;;;;5005577;28;20049;-80
2024/01/24 02:09:23;;;;;;;3.25;1.38;;;12.30;99.90;;;;;;5009253;28;20545;-80
2024/01/24 02:11:49;;;;;;;3.33;1.30;;;12.30;99.90;;;;;;5005026;28;20073;-79
2024/01/24 02:14:15;;;;;;;2.72;1.23;;;12.30;99.90;;;;;;5004445;28;20496;-78
2024/01/24 02:16:41;;;;;;;6.13;1.52;;;12.40;99.90;;;;;;5006286;28;20192;-79
2024/01/24 02:19:06;;;;;;;6.18;1.35;;;12.40;99.90;;;;;;5007154;28;20045;-80
2024/01/24 02:21:35;;;;;;;2.80;1.20;;;12.40;99.90;;;;;;5007547;28;20441;-80
2024/01/24 02:24:01;;;;;;;4.78;1.60;;;12.40;99.90;;;;;;4996420;28;20045;-80
2024/01/24 02:26:26;;;;;;;5.45;1.50;;;12.30;99.90;;;;;;5008364;28;20049;-80
2024/01/24 02:28:52;;;;;;;6.88;1.38;;;12.30;99.90;;;;;;5008838;28;20523;-81
2024/01/24 02:31:19;;;;;;;4.60;1.45;;;12.30;99.90;;;;;;5006977;28;20077;-80
2024/01/24 02:33:45;;;;;;;3.97;1.25;;;12.20;99.90;;;;;;5008675;28;20124;-81
2024/01/24 02:36:14;;;;;;;6.97;1.42;;;12.20;99.90;;;;;;5008013;28;20125;-81
2024/01/24 02:38:40;;;;;;;3.65;1.50;;;12.20;99.90;;;;;;5011100;28;20450;-81
2024/01/24 02:41:07;;;;;;;5.20;1.63;;;12.10;99.90;;;;;;5005278;28;20050;-79
2024/01/24 02:43:33;;;;;;;3.88;1.50;;;12.10;99.90;;;;;;5008964;28;20399;-80
2024/01/24 02:46:00;;;;;;;4.88;1.52;;;12.10;99.90;;;;;;4993592;28;20128;-79
2024/01/24 02:48:26;;;;;;;5.35;1.55;;;12.00;99.90;;;;;;5001721;28;20093;-79
2024/01/24 02:50:52;;;;;;;6.47;1.90;;;12.00;99.90;;;;;;5012217;28;20112;-80
2024/01/24 02:53:18;;;;;;;6.93;1.50;;;11.90;99.90;;;;;;5014874;28;20038;-79
2024/01/24 02:55:44;;;;;;;9.85;1.95;;;12.00;99.90;;;;;;5010435;28;20509;-79
2024/01/24 02:58:09;;;;;;;8.63;1.70;;;12.00;99.90;;;;;;5007679;28;20099;-79
2024/01/24 03:00:35;;;;;;;9.82;1.88;;;12.00;99.90;;;;;;5009676;28;20125;-79
2024/01/24 03:03:01;;;;;;;12.50;2.40;;;11.90;99.90;;;;;;5008942;28;20030;-78
2024/01/24 03:05:27;;;;;;;13.15;1.70;;;11.90;99.90;;;;;;5010261;28;20552;-78
2024/01/24 03:07:53;;;;;;;9.98;1.95;;;11.80;99.90;;;;;;5007106;28;20503;-78
2024/01/24 03:10:21;;;;;;;10.57;1.95;;;11.70;99.90;;;;;;5010163;28;20060;-78
2024/01/24 03:12:46;;;;;;;10.52;2.92;;;11.70;99.90;;;;;;5009488;28;20056;-79
2024/01/24 03:15:12;;;;;;;15.25;2.95;;;11.60;99.90;;;;;;5002391;28;20550;-79
2024/01/24 03:17:38;;;;;;;12.88;2.22;;;11.50;99.90;;;;;;5000917;28;20036;-79
2024/01/24 03:20:05;;;;;;;10.65;2.05;;;11.50;99.90;;;;;;5006086;28;20598;-79
2024/01/24 03:22:30;;;;;;;9.65;1.85;;;11.50;99.90;;;;;;5008809;28;20042;-78
2024/01/24 03:24:56;;;;;;;12.07;2.10;;;11.50;99.90;;;;;;5006169;28;20526;-79
2024/01/24 03:27:22;;;;;;;10.30;1.85;;;11.50;99.90;;;;;;5014717;28;20527;-78
2024/01/24 03:29:48;;;;;;;14.85;2.20;;;11.50;99.90;;;;;;5014758;28;20116;-79
2024/01/24 03:32:14;;;;;;;13.43;2.88;;;11.50;99.90;;;;;;5015034;28;20112;-79
2024/01/24 03:34:40;;;;;;;8.68;2.10;;;11.50;99.90;;;;;;5012326;28;20117;-79
2024/01/24 03:37:05;;;;;;;9.68;1.85;;;11.40;99.90;;;;;;5013046;28;20042;-78
2024/01/24 03:39:31;;;;;;;8.45;2.28;;;11.40;99.90;;;;;;5013472;28;20121;-79
2024/01/24 03:41:56;;;;;;;13.25;2.60;;;11.40;99.90;;;;;;5012235;28;20038;-79
2024/01/24 03:44:22;;;;;;;12.73;2.47;;;11.40;99.90;;;;;;5006672;28;20048;-79
2024/01/24 03:46:47;;;;;;;16.23;2.58;;;11.40;99.90;;;;;;5005691;28;20088;-78
2024/01/24 03:49:13;;;;;;;13.80;3.05;;;11.40;99.90;;;;;;5013999;28;20033;-79
2024/01/24 03:51:39;;;;;;;18.52;3.08;;;11.40;99.90;;;;;;5005577;28;20060;-78
2024/01/24 03:54:05;;;;;;;20.60;3.65;;;11.40;99.90;;;;;;5008636;28;20049;-79
2024/01/24 03:56:31;;;;;;;19.50;3.03;;;11.30;99.90;;;;;;4996884;28;20099;-79
2024/01/24 03:58:57;;;;;;;17.35;3.33;;;11.30;99.90;;;;;;5014245;28;20289;-79
2024/01/24 04:01:22;;;;;;;19.02;3.45;;;11.30;99.90;;;;;;5008450;28;20077;-79
2024/01/24 04:03:48;;;;;;;19.33;3.78;;;10.40;99.90;;;;;;5006591;28;20042;-79
2024/01/24 04:06:14;;;;;;;20.10;3.78;;;11.20;99.90;;;;;;5013563;28;20044;-79
2024/01/24 04:08:42;;;;;;;14.55;3.83;;;11.20;99.90;;;;;;5006444;28;20042;-80
2024/01/24 04:11:08;;;;;;;23.15;3.97;;;11.30;99.90;;;;;;5013933;28;20483;-80
2024/01/24 04:13:33;;;;;;;21.17;3.78;;;11.30;99.90;;;;;;5007251;28;20057;-80
2024/01/24 04:16:00;;;;;;;14.55;4.13;;;11.40;99.90;;;;;;5007921;28;20077;-80
2024/01/24 04:18:25;;;;;;;18.92;3.72;;;11.40;99.90;;;;;;5009348;28;20038;-80
2024/01/24 04:20:51;;;;;;;21.00;3.88;;;11.40;99.90;;;;;;5013475;28;20040;-80
2024/01/24 04:23:16;;;;;;;21.17;3.78;;;11.40;99.90;;;;;;5012634;28;20459;-79
2024/01/24 04:25:42;;;;;;;16.98;2.97;;;11.40;99.90;;;;;;5009603;28;20040;-82
2024/01/24 04:28:09;;;;;;;28.80;4.07;;;11.50;99.90;;;;;;5014528;28;20049;-80
2024/01/24 04:30:34;;;;;;;22.48;3.92;;;11.50;99.90;;;;;;5012628;28;20041;-80
2024/01/24 04:33:00;;;;;;;17.83;3.63;;;11.40;99.90;;;;;;5013325;28;20041;-80
2024/01/24 04:35:26;;;;;;;14.15;2.95;;;11.40;99.90;;;;;;5008477;28;20077;-80
2024/01/24 04:37:52;;;;;;;16.27;4.07;;;11.50;99.90;;;;;;5013021;28;20476;-80
2024/01/24 04:40:17;;;;;;;24.65;4.60;;;11.50;99.90;;;;;;5009922;28;20042;-80
2024/01/24 04:42:43;;;;;;;15.38;3.47;;;11.50;99.90;;;;;;5009092;28;20030;-79
2024/01/24 04:45:10;;;;;;;24.80;3.58;;;11.50;99.90;;;;;;5012434;28;20045;-80
2024/01/24 04:47:38;;;;;;;27.80;4.53;;;11.50;99.90;;;;;;5011554;28;20053;-79
2024/01/24 04:50:04;;;;;;;18.27;3.97;;;11.50;99.90;;;;;;5012075;28;20077;-79
2024/01/24 04:52:30;;;;;;;18.90;3.72;;;11.50;99.90;;;;;;5011828;28;20038;-79
2024/01/24 04:54:55;;;;;;;24.33;3.80;;;11.40;99.90;;;;;;5010895;28;20045;-79
2024/01/24 04:57:21;;;;;;;23.70;4.40;;;11.40;99.90;;;;;;5006993;28;20380;-79
2024/01/24 04:59:47;;;;;;;29.95;5.43;;;11.40;99.90;;;;;;5013811;28;20483;-79
2024/01/24 05:02:12;;;;;;;21.42;4.57;;;11.30;99.90;;;;;;5012804;28;20046;-78
2024/01/24 05:04:38;;;;;;;21.33;4.15;;;11.30;99.90;;;;;;5009198;28;20045;-78
2024/01/24 05:07:03;;;;;;;24.70;5.22;;;11.30;99.90;;;;;;5012364;28;20053;-79
2024/01/24 05:09:29;;;;;;;22.70;4.60;;;11.30;99.90;;;;;;5000273;28;20061;-79
2024/01/24 05:11:54;;;;;;;23.90;4.40;;;11.20;99.90;;;;;;5011425;28;20060;-78
2024/01/24 05:14:20;;;;;;;32.20;4.70;;;11.20;99.90;;;;;;5010357;28;20176;-79
2024/01/24 05:16:47;;;;;;;20.10;4.70;;;11.20;99.90;;;;;;5007588;28;20042;-78
2024/01/24 05:19:13;;;;;;;31.33;5.32;;;11.10;99.90;;;;;;5011541;28;20037;-78
2024/01/24 05:21:40;;;;;;;26.33;5.85;;;11.10;99.90;;;;;;5008430;28;20479;-78
2024/01/24 05:24:06;;;;;;;25.95;4.45;;;11.10;99.90;;;;;;5012296;28;20038;-78
2024/01/24 05:26:32;;;;;;;27.80;4.80;;;11.00;99.90;;;;;;5009786;28;20052;-78
2024/01/24 05:28:57;;;;;;;23.15;4.82;;;10.90;99.90;;;;;;5010861;28;20498;-78
2024/01/24 05:31:23;;;;;;;26.88;4.82;;;10.90;99.90;;;;;;5011182;28;20494;-78
2024/01/24 05:33:48;;;;;;;23.88;5.13;;;10.90;99.90;;;;;;5009628;28;20502;-79
2024/01/24 05:36:14;;;;;;;26.27;5.53;;;10.80;99.90;;;;;;5010363;28;20496;-78
2024/01/24 05:38:39;;;;;;;29.70;6.10;;;10.80;99.90;;;;;;5012007;28;20109;-78
2024/01/24 05:41:05;;;;;;;27.20;5.65;;;10.70;99.90;;;;;;5007174;28;20040;-79
2024/01/24 05:43:31;;;;;;;26.80;4.78;;;10.80;99.90;;;;;;5010529;28;20108;-78
2024/01/24 05:45:56;;;;;;;27.90;5.13;;;10.80;99.90;;;;;;5011326;28;20041;-79
2024/01/24 05:48:22;;;;;;;26.52;5.18;;;10.70;99.90;;;;;;5011854;28;20049;-78
2024/01/24 05:50:47;;;;;;;29.30;5.40;;;10.60;99.90;;;;;;5011681;28;20060;-78
2024/01/24 05:53:13;;;;;;;29.52;5.15;;;10.60;99.90;;;;;;5013109;28;20037;-78
2024/01/24 05:55:38;;;;;;;39.33;6.20;;;10.60;99.90;;;;;;5013568;28;20042;-79
2024/01/24 05:58:05;;;;;;;24.13;5.70;;;10.50;99.90;;;;;;5007606;28;20041;-78
2024/01/24 06:00:31;;;;;;;27.63;5.03;;;10.50;99.90;;;;;;5010501;28;20470;-78
2024/01/24 06:02:56;;;;;;;32.05;6.40;;;10.50;99.90;;;;;;5005345;28;20039;-78
2024/01/24 06:05:22;;;;;;;27.08;5.55;;;10.50;99.90;;;;;;5003307;28;20129;-78
2024/01/24 06:07:49;;;;;;;31.17;6.25;;;10.50;99.90;;;;;;5005961;28;20034;-78
2024/01/24 06:10:15;;;;;;;26.60;5.78;;;10.40;99.90;;;;;;5011289;28;20048;-79
2024/01/24 06:12:41;;;;;;;34.42;6.05;;;10.40;99.90;;;;;;5010657;28;20056;-81
2024/01/24 06:15:08;;;;;;;33.72;6.32;;;10.40;99.90;;;;;;5001566;28;20062;-78
2024/01/24 06:17:34;;;;;;;31.67;5.85;;;10.40;99.90;;;;;;5007183;28;20085;-80
2024/01/24 06:20:00;;;;;;;37.03;6.88;;;10.40;99.90;;;;;;5010281;28;20041;-80
2024/01/24 06:22:25;;;;;;;30.15;5.72;;;10.30;99.90;;;;;;5007763;28;20050;-80
2024/01/24 06:24:51;;;;;;;38.67;6.40;;;10.30;99.90;;;;;;5007507;28;20046;-79
2024/01/24 06:27:20;;;;;;;36.92;6.68;;;10.30;99.90;;;;;;5007880;28;20056;-79
2024/01/24 06:29:45;;;;;;;29.17;6.78;;;10.30;99.90;;;;;;5009024;28;20061;-80
2024/01/24 06:32:11;;;;;;;30.20;6.43;;;10.30;99.90;;;;;;5008272;28;20065;-79
2024/01/24 06:34:36;;;;;;;37.47;6.78;;;10.30;99.90;;;;;;5011566;28;20117;-78
2024/01/24 06:37:02;;;;;;;31.02;5.65;;;10.30;99.90;;;;;;5005563;28;20060;-79
2024/01/24 06:39:28;;;;;;;37.28;6.07;;;10.30;99.90;;;;;;5000948;28;20039;-80
2024/01/24 06:41:55;;;;;;;36.97;7.22;;;10.30;99.90;;;;;;5011249;28;20117;-79
2024/01/24 06:44:20;;;;;;;37.28;6.78;;;10.30;99.90;;;;;;4995885;28;20053;-79
2024/01/24 06:46:46;;;;;;;39.72;7.38;;;10.30;99.90;;;;;;5004409;28;20407;-73
2024/01/24 06:49:11;;;;;;;32.80;6.38;;;10.30;99.90;;;;;;5010061;28;20041;-78
2024/01/24 06:51:38;;;;;;;37.80;6.38;;;10.30;99.90;;;;;;5011212;28;20053;-77
2024/01/24 06:54:04;;;;;;;32.28;6.80;;;10.30;99.90;;;;;;5007737;28;20068;-78
2024/01/24 06:56:30;;;;;;;41.10;6.78;;;10.30;99.90;;;;;;5002183;28;20045;-78
2024/01/24 06:58:56;;;;;;;33.05;7.40;;;10.30;99.90;;;;;;5009788;28;20083;-77
2024/01/24 07:01:21;;;;;;;27.05;5.55;;;10.30;99.90;;;;;;5008803;28;20045;-77
2024/01/24 07:03:47;;;;;;;36.58;6.25;;;10.40;99.90;;;;;;5002978;28;20403;-77
2024/01/24 07:06:13;;;;;;;34.45;6.50;;;10.40;99.90;;;;;;5004816;28;20407;-76
2024/01/24 07:08:42;;;;;;;36.95;6.82;;;10.50;99.90;;;;;;5009498;28;20042;-78
2024/01/24 07:11:08;;;;;;;35.22;6.82;;;10.50;99.90;;;;;;5011413;28;20042;-77
2024/01/24 07:13:34;;;;;;;37.90;6.90;;;10.50;99.90;;;;;;5010876;28;20037;-77
2024/01/24 07:16:03;;;;;;;33.78;6.25;;;10.80;99.90;;;;;;5006198;28;20053;-77
2024/01/24 07:18:29;;;;;;;36.00;6.50;;;10.50;99.90;;;;;;5009800;28;20117;-77
2024/01/24 07:20:54;;;;;;;32.92;6.03;;;10.50;99.90;;;;;;5006735;28;20117;-77
2024/01/24 07:23:20;;;;;;;30.13;7.07;;;10.50;99.90;;;;;;5011450;28;20046;-77
2024/01/24 07:25:46;;;;;;;35.30;6.55;;;10.60;99.90;;;;;;5001149;28;20045;-76
2024/01/24 07:28:11;;;;;;;34.17;6.80;;;10.60;99.90;;;;;;5011310;28;20049;-77
2024/01/24 07:30:37;;;;;;;37.65;6.55;;;10.80;99.90;;;;;;5010307;28;20070;-78
2024/01/24 07:33:04;;;;;;;38.67;6.90;;;10.60;99.90;;;;;;5011242;28;20042;-77
2024/01/24 07:35:30;;;;;;;41.15;7.72;;;10.60;99.90;;;;;;5008001;28;20092;-76
2024/01/24 07:37:56;;;;;;;38.30;6.70;;;10.60;99.90;;;;;;5003851;28;20038;-76
2024/01/24 07:40:21;;;;;;;31.52;5.90;;;10.50;99.90;;;;;;5007118;28;20034;-77
2024/01/24 07:42:47;;;;;;;37.88;7.30;;;10.60;99.90;;;;;;5010603;28;20084;-77
2024/01/24 07:45:13;;;;;;;40.38;7.40;;;10.50;99.90;;;;;;5010261;28;20800;-78
2024/01/24 07:47:39;;;;;;;35.15;7.35;;;10.50;99.90;;;;;;5010842;28;20073;-77
2024/01/24 07:50:04;;;;;;;35.40;7.63;;;10.50;99.90;;;;;;5008509;28;20188;-77
2024/01/24 07:52:30;;;;;;;41.08;7.18;;;10.50;99.90;;;;;;5011158;28;20045;-78
2024/01/24 07:54:56;;;;;;;30.15;6.13;;;10.50;99.90;;;;;;5008014;28;20049;-77
2024/01/24 07:57:21;;;;;;;38.70;6.95;;;10.40;99.90;;;;;;5009233;28;20041;-77
2024/01/24 07:59:47;;;;;;;30.80;6.18;;;10.40;99.90;;;;;;5010667;28;20092;-76
2024/01/24 08:02:16;;;;;;;32.63;6.75;;;10.30;99.90;;;;;;5006659;28;20045;-77
2024/01/24 08:04:42;;;;;;;38.08;7.53;;;10.30;99.90;;;;;;5009794;28;20038;-77
2024/01/24 08:07:08;;;;;;;41.08;7.30;;;10.60;99.90;;;;;;5005496;28;20049;-77
2024/01/24 08:09:34;;;;;;;36.13;6.55;;;10.30;99.90;;;;;;5009693;28;20050;-77
2024/01/24 08:12:00;;;;;;;33.33;6.38;;;10.20;99.90;;;;;;5003979;28;20048;-77
2024/01/24 08:14:25;;;;;;;39.45;7.43;;;10.30;99.90;;;;;;5002210;28;20509;-77
2024/01/24 08:17:04;;;;;;;35.90;6.35;;;10.20;99.90;;;;;;5008708;28;20037;-77
2024/01/24 08:19:30;;;;;;;39.15;6.82;;;10.20;99.90;;;;;;5014684;28;20053;-77
2024/01/24 08:21:55;;;;;;;31.88;6.53;;;10.30;99.90;;;;;;5010790;28;20038;-77
2024/01/24 08:24:21;;;;;;;34.30;7.13;;;10.30;99.90;;;;;;5015150;28;20044;-77
2024/01/24 08:26:48;;;;;;;42.67;7.63;;;10.20;99.90;;;;;;5000231;28;20046;-77
2024/01/24 08:29:15;;;;;;;35.17;7.78;;;10.20;99.90;;;;;;5014161;28;20044;-77
2024/01/24 08:31:41;;;;;;;41.72;7.75;;;10.30;99.90;;;;;;5014313;28;20037;-76
2024/01/24 08:34:07;;;;;;;43.00;7.40;;;10.20;99.90;;;;;;5007310;28;20065;-77
2024/01/24 08:36:32;;;;;;;40.35;7.18;;;10.30;99.90;;;;;;5012353;28;20108;-77
2024/01/24 08:38:58;;;;;;;46.90;7.07;;;10.30;99.90;;;;;;5004448;28;20050;-77
2024/01/24 08:41:24;;;;;;;34.33;6.43;;;10.30;99.90;;;;;;5009716;28;20038;-77
2024/01/24 08:43:49;;;;;;;42.47;7.32;;;10.30;99.90;;;;;;5011882;28;20038;-77
2024/01/24 08:46:15;;;;;;;44.28;6.88;;;10.30;99.90;;;;;;5013190;28;20081;-77
2024/01/24 08:48:41;;;;;;;45.78;7.95;;;10.30;99.90;;;;;;5005087;28;20042;-75
2024/01/24 08:51:07;;;;;;;43.10;7.10;;;10.30;99.90;;;;;;5014254;28;20042;-77
2024/01/24 08:53:33;;;;;;;32.92;6.53;;;10.30;99.90;;;;;;5012659;28;20045;-77
2024/01/24 08:55:58;;;;;;;34.17;7.50;;;10.30;99.90;;;;;;4991993;28;20172;-77
2024/01/24 08:58:24;;;;;;;36.60;7.10;;;10.30;99.90;;;;;;5013413;28;20089;-77
2024/01/24 09:00:50;;;;;;;38.60;7.25;;;10.30;99.90;;;;;;5010300;28;20053;-77
2024/01/24 09:03:15;;;;;;;38.00;6.88;;;10.30;99.90;;;;;;5012208;28;20068;-77
2024/01/24 09:05:41;;;;;;;41.40;7.40;;;10.30;99.90;;;;;;5007952;28;20041;-75
2024/01/24 09:08:08;;;;;;;33.25;6.43;;;10.30;99.90;;;;;;5012337;28;20073;-77
2024/01/24 09:10:33;;;;;;;32.75;6.68;;;10.30;99.90;;;;;;5011436;28;20050;-78
2024/01/24 09:12:59;;;;;;;31.67;6.47;;;10.40;99.90;;;;;;5000024;28;20377;-76
2024/01/24 09:15:25;;;;;;;36.15;6.13;;;10.30;99.90;;;;;;5007827;28;20041;-77
2024/01/24 09:17:50;;;;;;;32.83;6.43;;;10.30;99.90;;;;;;5005864;28;20034;-77
2024/01/24 09:20:16;;;;;;;30.55;6.57;;;10.30;99.90;;;;;;5009512;28;20042;-77
2024/01/24 09:22:42;;;;;;;41.13;6.95;;;10.30;99.90;;;;;;5013222;28;20037;-77
2024/01/24 09:25:07;;;;;;;36.88;6.00;;;10.30;99.90;;;;;;5008986;28;20473;-76
2024/01/24 09:27:33;;;;;;;38.53;7.25;;;10.30;99.90;;;;;;5011232;28;20034;-76
2024/01/24 09:29:58;;;;;;;35.22;6.13;;;10.40;99.90;;;;;;5008412;28;20577;-77
2024/01/24 09:32:24;;;;;;;30.25;6.10;;;10.40;99.90;;;;;;5012036;28;20029;-77
2024/01/24 09:34:50;;;;;;;33.75;6.90;;;10.40;99.90;;;;;;5001931;28;20077;-77
2024/01/24 09:37:15;;;;;;;34.00;6.40;;;10.40;99.90;;;;;;5012139;28;20042;-77
2024/01/24 09:39:41;;;;;;;32.92;6.90;;;10.40;99.90;;;;;;4988413;28;20041;-77
2024/01/24 09:42:18;;;;;;;37.88;7.28;;;10.40;99.90;;;;;;5011975;28;20042;-77
2024/01/24 09:44:48;;;;;;;31.75;6.30;;;10.30;99.90;;;;;;5003686;28;20096;-77
2024/01/24 09:47:16;;;;;;;41.17;7.28;;;10.30;99.90;;;;;;5010045;28;20046;-77
2024/01/24 09:49:43;;;;;;;36.95;6.93;;;10.30;99.90;;;;;;5007644;28;20092;-79
2024/01/24 09:52:10;;;;;;;40.13;6.88;;;10.30;99.90;;;;;;5005162;28;20056;-78
2024/01/24 09:54:36;;;;;;;33.60;6.25;;;10.20;99.90;;;;;;5006619;28;20041;-76
2024/01/24 09:57:02;;;;;;;37.70;6.35;;;10.30;99.90;;;;;;5006036;28;20075;-77
2024/01/24 09:59:28;;;;;;;37.30;7.57;;;10.30;99.90;;;;;;5004796;28;20660;-77
2024/01/24 10:01:53;;;;;;;39.40;7.07;;;10.30;99.90;;;;;;5009514;28;20550;-77
2024/01/24 10:04:20;;;;;;;41.25;7.20;;;10.30;99.90;;;;;;5009055;28;20034;-77
2024/01/24 10:06:47;;;;;;;37.30;7.45;;;10.30;99.90;;;;;;5010457;28;20522;-77
2024/01/24 10:09:13;;;;;;;34.97;6.80;;;10.30;99.90;;;;;;5002829;28;20132;-77
2024/01/24 10:11:38;;;;;;;42.13;6.95;;;10.30;99.90;;;;;;5007912;28;20116;-76
2024/01/24 10:14:04;;;;;;;36.92;6.50;;;10.30;99.90;;;;;;5012136;28;20048;-78
2024/01/24 10:16:30;;;;;;;33.35;7.68;;;10.40;99.90;;;;;;5010871;28;20038;-76
2024/01/24 10:18:56;;;;;;;36.55;6.80;;;10.40;99.90;;;;;;5004332;28;20034;-77
2024/01/24 10:21:22;;;;;;;33.95;7.40;;;10.40;99.90;;;;;;5008027;28;20041;-77
2024/01/24 10:23:48;;;;;;;39.60;7.03;;;10.30;99.90;;;;;;5007719;28;20455;-78
2024/01/24 10:26:16;;;;;;;32.50;7.18;;;10.30;99.90;;;;;;5010502;28;20046;-77
2024/01/24 10:28:43;;;;;;;34.80;6.57;;;10.40;99.90;;;;;;5010665;28;20521;-76
2024/01/24 10:31:09;;;;;;;34.85;6.03;;;10.40;99.90;;;;;;5010563;28;20049;-76
2024/01/24 10:33:35;;;;;;;28.65;5.70;;;10.40;99.90;;;;;;5009778;28;20046;-77
2024/01/24 10:36:01;;;;;;;30.00;6.32;;;10.50;99.90;;;;;;4998566;28;20054;-77
2024/01/24 10:38:33;;;;;;;26.02;5.63;;;10.40;99.90;;;;;;5003943;28;20140;-77
2024/01/24 10:41:01;;;;;;;35.03;6.20;;;10.50;99.90;;;;;;5006321;28;20041;-77
2024/01/24 10:43:27;;;;;;;38.53;6.38;;;10.50;99.90;;;;;;5004692;28;20045;-76
2024/01/24 10:45:54;;;;;;;41.05;6.65;;;10.50;99.90;;;;;;5003221;28;20132;-77
2024/01/24 10:48:20;;;;;;;40.30;5.40;;;10.50;99.90;;;;;;5010201;28;20164;-76
2024/01/24 10:50:46;;;;;;;31.83;6.53;;;10.50;99.90;;;;;;5004159;28;20524;-77
2024/01/24 10:53:13;;;;;;;31.45;5.55;;;10.50;99.90;;;;;;5005779;28;20510;-77
2024/01/24 10:55:42;;;;;;;38.63;6.28;;;10.50;99.90;;;;;;5004134;28;20053;-77
2024/01/24 10:58:11;;;;;;;31.05;5.68;;;10.50;99.90;;;;;;5008904;28;20386;-76
2024/01/24 11:00:39;;;;;;;27.35;5.45;;;10.50;99.90;;;;;;4991927;28;20042;-76
2024/01/24 11:03:05;;;;;;;24.88;5.50;;;10.50;99.90;;;;;;5006516;28;20046;-77
2024/01/24 11:05:35;;;;;;;28.60;6.50;;;10.60;99.90;;;;;;5010983;28;20049;-77
2024/01/24 11:08:24;;;;;;;31.63;6.00;;;10.60;99.90;;;;;;4998245;28;20065;-77
2024/01/24 11:10:54;;;;;;;32.67;5.68;;;10.50;99.90;;;;;;5002297;28;20459;-77
2024/01/24 11:13:24;;;;;;;25.13;5.45;;;10.60;99.90;;;;;;5006973;28;20065;-77
2024/01/24 11:15:51;;;;;;;32.72;5.32;;;10.60;99.90;;;;;;5004829;28;20466;-77
2024/01/24 11:18:21;;;;;;;30.50;5.47;;;10.60;99.90;;;;;;5009796;28;20104;-76
2024/01/24 11:20:51;;;;;;;31.52;5.68;;;10.60;99.90;;;;;;4996719;28;20037;-77
2024/01/24 11:23:44;;;;;;;34.13;5.88;;;10.60;99.90;;;;;;5008911;28;20050;-78
2024/01/24 11:26:10;;;;;;;;;;;10.60;99.90;;;;;;5011911;28;20084;-77
2024/01/24 11:28:37;;;;;;;31.35;4.88;;;10.60;99.90;;;;;;5009364;28;21303;-77
2024/01/24 11:31:09;;;;;;;32.67;6.30;;;10.60;99.90;;;;;;5006216;28;20040;-77
2024/01/24 11:33:35;;;;;;;31.38;6.13;;;10.60;99.90;;;;;;5003270;28;20045;-76
2024/01/24 11:36:03;;;;;;;28.67;5.60;;;10.70;99.90;;;;;;5008734;28;20103;-77
2024/01/24 11:38:29;;;;;;;33.47;5.20;;;10.70;99.90;;;;;;4986882;28;20050;-76
2024/01/24 11:41:10;;;;;;;31.83;5.72;;;10.70;99.90;;;;;;5007707;28;20052;-77
2024/01/24 11:43:36;;;;;;;34.28;5.78;;;10.70;99.90;;;;;;5001648;28;20053;-76
2024/01/24 11:46:07;;;;;;;27.67;5.38;;;10.70;99.90;;;;;;5007938;28;20041;-76
2024/01/24 11:48:36;;;;;;;26.20;5.22;;;10.70;99.90;;;;;;5009382;28;20042;-77
2024/01/24 11:51:12;;;;;;;32.15;5.63;;;10.70;99.90;;;;;;5005020;28;20046;-77
2024/01/24 11:53:38;;;;;;;29.75;5.40;;;10.70;99.90;;;;;;5009148;28;20038;-77
2024/01/24 11:56:06;;;;;;;28.35;5.25;;;10.70;99.90;;;;;;5012678;28;20411;-76
2024/01/24 11:58:32;;;;;;;28.95;6.05;;;10.80;99.90;;;;;;5011448;28;20439;-77
2024/01/24 12:01:06;;;;;;;28.58;5.97;;;10.90;99.90;;;;;;5009953;28;20053;-76
2024/01/24 12:03:32;;;;;;;26.77;5.07;;;11.00;99.90;;;;;;5008770;28;20128;-77
2024/01/24 12:05:58;;;;;;;25.98;5.45;;;11.00;99.90;;;;;;5008036;28;20172;-76
2024/01/24 12:08:26;;;;;;;32.97;6.47;;;11.10;99.90;;;;;;5009901;28;20066;-76
2024/01/24 12:10:52;;;;;;;35.15;5.07;;;10.90;99.90;;;;;;5011363;28;20037;-76
2024/01/24 12:13:20;;;;;;;27.08;5.55;;;10.90;99.90;;;;;;5003410;28;20046;-77
2024/01/24 12:15:46;;;;;;;23.70;5.57;;;10.80;99.90;;;;;;5006925;28;20042;-76
2024/01/24 12:18:13;;;;;;;23.95;6.03;;;10.80;99.90;;;;;;5010329;28;20034;-73
2024/01/24 12:20:44;;;;;;;29.45;5.88;;;10.80;99.90;;;;;;5007421;28;20030;-76
2024/01/24 12:23:10;;;;;;;26.15;5.88;;;10.90;99.90;;;;;;5012570;28;20037;-77
2024/01/24 12:25:36;;;;;;;30.30;5.90;;;10.80;99.90;;;;;;5009329;28;20084;-77
2024/01/24 12:28:02;;;;;;;36.20;7.05;;;10.80;99.90;;;;;;5013716;28;20034;-76
2024/01/24 12:30:34;;;;;;;29.77;5.80;;;10.70;99.90;;;;;;5010540;28;20041;-76
2024/01/24 12:33:01;;;;;;;27.10;5.43;;;10.80;99.90;;;;;;5001191;28;20128;-77
2024/01/24 12:35:31;;;;;;;28.63;5.78;;;10.80;99.90;;;;;;5012441;28;20553;-76